sensor_id;sensor_type;location;lat;lon;timestamp;pressure;altitude;pressure_sealevel;temperature;humidity
42945;BME280;28584;42.636;23.294;2023-07-16T00:00:05;164244.25;;;21.31;100.00
42945;BME280;28584;42.636;23.294;2023-07-16T00:02:30;164256.38;;;21.35;100.00
42945;BME280;28584;42.636;23.294;2023-07-16T00:04:56;164253.69;;;21.34;100.00
42945;BME280;28584;42.636;23.294;2023-07-16T00:07:21;164221.34;;;21.22;100.00
42945;BME280;28584;42.636;23.294;2023-07-16T00:09:46;164201.19;;;21.15;100.00
42945;BME280;28584;42.636;23.294;2023-07-16T00:12:12;164199.84;;;21.14;100.00
42945;BME280;28584;42.636;23.294;2023-07-16T00:14:37;164194.44;;;21.12;100.00
42945;BME280;28584;42.636;23.294;2023-07-16T00:17:03;164179.63;;;21.07;100.00
42945;BME280;28584;42.636;23.294;2023-07-16T00:19:28;164168.88;;;21.03;100.00
42945;BME280;28584;42.636;23.294;2023-07-16T00:21:54;164174.28;;;21.05;100.00
42945;BME280;28584;42.636;23.294;2023-07-16T00:24:19;164156.75;;;20.98;100.00
42945;BME280;28584;42.636;23.294;2023-07-16T00:26:45;164155.44;;;20.98;100.00
42945;BME280;28584;42.636;23.294;2023-07-16T00:29:10;164147.34;;;20.95;100.00
42945;BME280;28584;42.636;23.294;2023-07-16T00:31:35;164137.84;;;20.91;100.00
42945;BME280;28584;42.636;23.294;2023-07-16T00:34:01;164144.66;;;20.94;100.00
42945;BME280;28584;42.636;23.294;2023-07-16T00:36:26;164124.41;;;20.86;100.00
42945;BME280;28584;42.636;23.294;2023-07-16T00:38:52;164102.88;;;20.78;100.00
42945;BME280;28584;42.636;23.294;2023-07-16T00:41:17;164101.53;;;20.78;100.00
42945;BME280;28584;42.636;23.294;2023-07-16T00:43:42;164081.31;;;20.70;100.00
42945;BME280;28584;42.636;23.294;2023-07-16T00:46:08;164066.53;;;20.65;100.00
42945;BME280;28584;42.636;23.294;2023-07-16T00:48:34;164035.56;;;20.53;100.00
42945;BME280;28584;42.636;23.294;2023-07-16T00:51:01;164030.22;;;20.51;100.00
42945;BME280;28584;42.636;23.294;2023-07-16T00:53:27;164031.59;;;20.52;100.00
42945;BME280;28584;42.636;23.294;2023-07-16T00:55:52;164023.50;;;20.49;100.00
42945;BME280;28584;42.636;23.294;2023-07-16T00:58:18;163984.47;;;20.34;100.00
42945;BME280;28584;42.636;23.294;2023-07-16T01:00:44;163984.47;;;20.34;100.00
42945;BME280;28584;42.636;23.294;2023-07-16T01:03:11;163964.25;;;20.27;100.00
42945;BME280;28584;42.636;23.294;2023-07-16T01:05:49;163965.63;;;20.27;100.00
42945;BME280;28584;42.636;23.294;2023-07-16T01:08:21;163975.03;;;20.31;100.00
42945;BME280;28584;42.636;23.294;2023-07-16T01:10:52;163981.78;;;20.33;100.00
42945;BME280;28584;42.636;23.294;2023-07-16T01:13:18;163999.25;;;20.40;100.00
42945;BME280;28584;42.636;23.294;2023-07-16T01:15:44;163970.97;;;20.29;100.00
42945;BME280;28584;42.636;23.294;2023-07-16T01:18:09;163976.38;;;20.31;100.00
42945;BME280;28584;42.636;23.294;2023-07-16T01:20:35;163948.16;;;20.21;100.00
42945;BME280;28584;42.636;23.294;2023-07-16T01:28:27;163905.03;;;20.05;100.00
42945;BME280;28584;42.636;23.294;2023-07-16T01:30:59;163890.25;;;19.99;100.00
42945;BME280;28584;42.636;23.294;2023-07-16T01:33:25;163901.00;;;20.03;100.00
42945;BME280;28584;42.636;23.294;2023-07-16T01:35:52;163894.28;;;20.01;100.00
42945;BME280;28584;42.636;23.294;2023-07-16T01:38:18;163875.47;;;19.94;100.00
42945;BME280;28584;42.636;23.294;2023-07-16T01:40:46;163868.75;;;19.91;100.00
42945;BME280;28584;42.636;23.294;2023-07-16T01:43:12;163868.75;;;19.91;100.00
42945;BME280;28584;42.636;23.294;2023-07-16T01:45:37;163886.22;;;19.98;100.00
42945;BME280;28584;42.636;23.294;2023-07-16T01:50:34;163866.00;;;19.90;100.00
42945;BME280;28584;42.636;23.294;2023-07-16T01:53:00;163841.84;;;19.81;100.00
42945;BME280;28584;42.636;23.294;2023-07-16T01:55:25;163829.72;;;19.77;100.00
42945;BME280;28584;42.636;23.294;2023-07-16T01:57:50;163828.34;;;19.76;100.00
42945;BME280;28584;42.636;23.294;2023-07-16T02:00:16;163836.44;;;19.79;100.00
42945;BME280;28584;42.636;23.294;2023-07-16T02:02:41;163837.81;;;19.80;100.00
42945;BME280;28584;42.636;23.294;2023-07-16T02:05:07;163832.41;;;19.78;100.00
42945;BME280;28584;42.636;23.294;2023-07-16T02:07:32;163831.03;;;19.77;100.00
42945;BME280;28584;42.636;23.294;2023-07-16T02:09:58;163820.28;;;19.73;100.00
42945;BME280;28584;42.636;23.294;2023-07-16T02:12:23;163814.94;;;19.71;100.00
42945;BME280;28584;42.636;23.294;2023-07-16T02:14:48;163823.00;;;19.74;100.00
42945;BME280;28584;42.636;23.294;2023-07-16T02:17:15;163816.25;;;19.72;100.00
42945;BME280;28584;42.636;23.294;2023-07-16T02:19:41;163808.22;;;19.69;100.00
42945;BME280;28584;42.636;23.294;2023-07-16T02:22:07;163812.22;;;19.70;100.00
42945;BME280;28584;42.636;23.294;2023-07-16T02:24:33;163782.63;;;19.59;100.00
42945;BME280;28584;42.636;23.294;2023-07-16T02:26:58;163778.59;;;19.58;100.00
42945;BME280;28584;42.636;23.294;2023-07-16T02:29:23;163774.56;;;19.56;100.00
42945;BME280;28584;42.636;23.294;2023-07-16T02:31:49;163761.13;;;19.51;100.00
42945;BME280;28584;42.636;23.294;2023-07-16T02:34:14;163755.72;;;19.49;100.00
42945;BME280;28584;42.636;23.294;2023-07-16T02:36:40;163753.06;;;19.48;100.00
42945;BME280;28584;42.636;23.294;2023-07-16T02:39:05;163742.31;;;19.44;100.00
42945;BME280;28584;42.636;23.294;2023-07-16T02:41:31;163750.38;;;19.47;100.00
42945;BME280;28584;42.636;23.294;2023-07-16T02:44:00;163766.53;;;19.53;100.00
42945;BME280;28584;42.636;23.294;2023-07-16T02:46:26;163771.88;;;19.55;100.00
42945;BME280;28584;42.636;23.294;2023-07-16T02:48:52;163742.31;;;19.44;100.00
42945;BME280;28584;42.636;23.294;2023-07-16T02:51:17;163736.91;;;19.42;100.00
42945;BME280;28584;42.636;23.294;2023-07-16T02:53:42;163740.94;;;19.44;100.00
42945;BME280;28584;42.636;23.294;2023-07-16T02:56:08;163731.56;;;19.40;100.00
42945;BME280;28584;42.636;23.294;2023-07-16T02:58:33;163714.03;;;19.34;100.00
42945;BME280;28584;42.636;23.294;2023-07-16T03:00:59;163732.88;;;19.41;100.00
42945;BME280;28584;42.636;23.294;2023-07-16T03:03:24;163723.47;;;19.37;100.00
42945;BME280;28584;42.636;23.294;2023-07-16T03:05:49;163692.53;;;19.26;100.00
42945;BME280;28584;42.636;23.294;2023-07-16T03:08:15;163687.16;;;19.24;100.00
42945;BME280;28584;42.636;23.294;2023-07-16T03:10:40;163677.72;;;19.20;100.00
42945;BME280;28584;42.636;23.294;2023-07-16T03:13:06;163673.69;;;19.19;100.00
42945;BME280;28584;42.636;23.294;2023-07-16T03:15:31;163685.78;;;19.23;100.00
42945;BME280;28584;42.636;23.294;2023-07-16T03:17:56;163701.97;;;19.29;100.00
42945;BME280;28584;42.636;23.294;2023-07-16T03:20:22;163723.47;;;19.37;100.00
42945;BME280;28584;42.636;23.294;2023-07-16T03:22:48;163762.50;;;19.52;100.00
42945;BME280;28584;42.636;23.294;2023-07-16T03:25:13;163805.50;;;19.68;100.00
42945;BME280;28584;42.636;23.294;2023-07-16T03:27:39;163847.19;;;19.83;100.00
42945;BME280;28584;42.636;23.294;2023-07-16T03:30:05;163894.28;;;20.01;100.00
42945;BME280;28584;42.636;23.294;2023-07-16T03:32:31;163929.31;;;20.14;100.00
42945;BME280;28584;42.636;23.294;2023-07-16T03:34:56;163953.50;;;20.23;100.00
42945;BME280;28584;42.636;23.294;2023-07-16T03:37:22;164008.69;;;20.43;100.00
42945;BME280;28584;42.636;23.294;2023-07-16T03:39:47;164065.22;;;20.64;100.00
42945;BME280;28584;42.636;23.294;2023-07-16T03:42:12;164125.78;;;20.87;100.00
42945;BME280;28584;42.636;23.294;2023-07-16T03:44:38;164213.31;;;21.19;100.00
42945;BME280;28584;42.636;23.294;2023-07-16T03:47:03;164280.63;;;21.44;100.00
42945;BME280;28584;42.636;23.294;2023-07-16T03:49:29;164361.44;;;21.75;100.00
42945;BME280;28584;42.636;23.294;2023-07-16T03:51:54;164415.31;;;21.95;100.00
42945;BME280;28584;42.636;23.294;2023-07-16T03:54:20;164516.38;;;22.32;100.00
42945;BME280;28584;42.636;23.294;2023-07-16T03:56:45;164595.94;;;22.62;100.00
42945;BME280;28584;42.636;23.294;2023-07-16T03:59:10;164687.53;;;22.96;100.00
42945;BME280;28584;42.636;23.294;2023-07-16T04:01:36;164779.25;;;23.30;100.00
42945;BME280;28584;42.636;23.294;2023-07-16T04:04:01;164884.41;;;23.69;100.00
42945;BME280;28584;42.636;23.294;2023-07-16T04:06:27;164978.88;;;24.04;100.00
42945;BME280;28584;42.636;23.294;2023-07-16T04:08:52;165070.56;;;24.38;100.00
42945;BME280;28584;42.636;23.294;2023-07-16T04:11:17;165167.78;;;24.74;100.00
42945;BME280;28584;42.636;23.294;2023-07-16T04:13:43;165263.63;;;25.10;100.00
42945;BME280;28584;42.636;23.294;2023-07-16T04:16:08;165351.34;;;25.42;100.00
42945;BME280;28584;42.636;23.294;2023-07-16T04:18:34;165393.19;;;25.58;100.00
42945;BME280;28584;42.636;23.294;2023-07-16T04:20:59;165105.66;;;24.51;100.00
42945;BME280;28584;42.636;23.294;2023-07-16T04:23:25;165057.09;;;24.33;100.00
42945;BME280;28584;42.636;23.294;2023-07-16T04:25:55;165173.16;;;24.76;100.00
42945;BME280;28584;42.636;23.294;2023-07-16T04:28:20;165175.91;;;24.77;100.00
42945;BME280;28584;42.636;23.294;2023-07-16T04:30:46;165194.78;;;24.84;100.00
42945;BME280;28584;42.636;23.294;2023-07-16T04:33:11;165178.56;;;24.78;100.00
42945;BME280;28584;42.636;23.294;2023-07-16T04:35:37;165246.03;;;25.03;100.00
42945;BME280;28584;42.636;23.294;2023-07-16T04:38:02;165283.81;;;25.17;100.00
42945;BME280;28584;42.636;23.294;2023-07-16T04:40:30;165402.69;;;25.61;100.00
42945;BME280;28584;42.636;23.294;2023-07-16T04:42:56;165274.41;;;25.14;100.00
42945;BME280;28584;42.636;23.294;2023-07-16T04:45:21;165366.25;;;25.48;100.00
42945;BME280;28584;42.636;23.294;2023-07-16T04:47:47;165379.72;;;25.53;100.00
42945;BME280;28584;42.636;23.294;2023-07-16T04:50:13;165240.66;;;25.01;100.00
42945;BME280;28584;42.636;23.294;2023-07-16T04:52:38;165389.19;;;25.56;100.00
42945;BME280;28584;42.636;23.294;2023-07-16T04:55:04;165502.66;;;25.98;100.00
42945;BME280;28584;42.636;23.294;2023-07-16T04:57:29;165532.34;;;26.09;100.00
42945;BME280;28584;42.636;23.294;2023-07-16T04:59:55;165678.25;;;26.64;100.00
42945;BME280;28584;42.636;23.294;2023-07-16T05:02:20;165756.66;;;26.93;100.00
42945;BME280;28584;42.636;23.294;2023-07-16T05:04:46;165701.22;;;26.72;100.00
42945;BME280;28584;42.636;23.294;2023-07-16T05:07:13;165531.00;;;26.09;100.00
42945;BME280;28584;42.636;23.294;2023-07-16T05:09:39;165635.00;;;26.47;100.00
42945;BME280;28584;42.636;23.294;2023-07-16T05:12:04;165756.66;;;26.93;100.00
42945;BME280;28584;42.636;23.294;2023-07-16T05:14:30;165924.25;;;27.55;96.34
42945;BME280;28584;42.636;23.294;2023-07-16T05:16:56;165936.44;;;27.59;89.63
42945;BME280;28584;42.636;23.294;2023-07-16T05:19:21;165878.31;;;27.38;97.27
42945;BME280;28584;42.636;23.294;2023-07-16T05:21:47;165608.00;;;26.37;100.00
42945;BME280;28584;42.636;23.294;2023-07-16T05:24:12;165517.50;;;26.04;100.00
42945;BME280;28584;42.636;23.294;2023-07-16T05:26:38;165601.25;;;26.35;100.00
42945;BME280;28584;42.636;23.294;2023-07-16T05:29:03;165751.22;;;26.91;100.00
42945;BME280;28584;42.636;23.294;2023-07-16T05:31:29;165526.94;;;26.07;100.00
42945;BME280;28584;42.636;23.294;2023-07-16T05:33:54;165748.53;;;26.90;100.00
42945;BME280;28584;42.636;23.294;2023-07-16T05:36:20;165821.50;;;27.17;96.52
42945;BME280;28584;42.636;23.294;2023-07-16T05:38:45;165762.00;;;26.95;99.65
42945;BME280;28584;42.636;23.294;2023-07-16T05:41:11;166083.84;;;28.14;83.53
42945;BME280;28584;42.636;23.294;2023-07-16T05:43:36;165774.19;;;26.99;91.25
42945;BME280;28584;42.636;23.294;2023-07-16T05:46:01;165943.19;;;27.62;84.95
42945;BME280;28584;42.636;23.294;2023-07-16T05:48:27;166002.69;;;27.84;83.51
42945;BME280;28584;42.636;23.294;2023-07-16T05:50:53;166129.81;;;28.31;77.55
42945;BME280;28584;42.636;23.294;2023-07-16T05:53:18;166186.66;;;28.52;73.51
42945;BME280;28584;42.636;23.294;2023-07-16T05:55:43;166236.72;;;28.70;70.69
42945;BME280;28584;42.636;23.294;2023-07-16T05:58:09;166265.09;;;28.81;67.94
42945;BME280;28584;42.636;23.294;2023-07-16T06:00:35;165786.34;;;27.04;82.50
42945;BME280;28584;42.636;23.294;2023-07-16T06:03:02;166064.91;;;28.07;76.84
42945;BME280;28584;42.636;23.294;2023-07-16T06:05:27;166105.44;;;28.22;71.87
42945;BME280;28584;42.636;23.294;2023-07-16T06:07:57;166468.09;;;29.56;65.43
42945;BME280;28584;42.636;23.294;2023-07-16T06:10:23;166845.97;;;30.96;58.61
42945;BME280;28584;42.636;23.294;2023-07-16T06:12:48;166904.16;;;31.17;56.90
42945;BME280;28584;42.636;23.294;2023-07-16T06:15:13;166516.84;;;29.74;59.42
42945;BME280;28584;42.636;23.294;2023-07-16T06:17:39;166289.47;;;28.90;63.43
42945;BME280;28584;42.636;23.294;2023-07-16T06:20:05;166518.22;;;29.75;62.03
42945;BME280;28584;42.636;23.294;2023-07-16T06:22:32;166663.09;;;30.28;58.13
42945;BME280;28584;42.636;23.294;2023-07-16T06:24:57;166974.66;;;31.44;55.79
42945;BME280;28584;42.636;23.294;2023-07-16T06:27:24;166790.41;;;30.75;55.91
42945;BME280;28584;42.636;23.294;2023-07-16T06:29:50;166992.25;;;31.50;54.76
42945;BME280;28584;42.636;23.294;2023-07-16T06:32:15;166441.03;;;29.46;58.95
42945;BME280;28584;42.636;23.294;2023-07-16T06:34:41;166780.94;;;30.72;56.20
42945;BME280;28584;42.636;23.294;2023-07-16T06:37:06;166749.75;;;30.60;56.63
42945;BME280;28584;42.636;23.294;2023-07-16T06:39:32;166673.94;;;30.32;57.92
42945;BME280;28584;42.636;23.294;2023-07-16T06:41:57;166897.41;;;31.15;54.86
42945;BME280;28584;42.636;23.294;2023-07-16T06:44:22;166980.09;;;31.46;53.65
42945;BME280;28584;42.636;23.294;2023-07-16T06:46:49;166981.44;;;31.46;52.24
42945;BME280;28584;42.636;23.294;2023-07-16T06:49:14;166652.28;;;30.24;55.19
42945;BME280;28584;42.636;23.294;2023-07-16T06:51:39;166726.72;;;30.52;55.99
42945;BME280;28584;42.636;23.294;2023-07-16T06:54:06;166959.78;;;31.38;53.63
42945;BME280;28584;42.636;23.294;2023-07-16T06:56:31;166947.56;;;31.33;52.98
42945;BME280;28584;42.636;23.294;2023-07-16T06:58:57;167302.72;;;32.65;51.31
42945;BME280;28584;42.636;23.294;2023-07-16T07:01:22;167177.97;;;32.19;51.61
42945;BME280;28584;42.636;23.294;2023-07-16T07:03:48;166993.63;;;31.51;52.26
42945;BME280;28584;42.636;23.294;2023-07-16T07:06:13;167214.59;;;32.32;50.66
42945;BME280;28584;42.636;23.294;2023-07-16T07:08:39;167248.47;;;32.45;50.84
42945;BME280;28584;42.636;23.294;2023-07-16T07:11:04;167081.75;;;31.83;50.96
42945;BME280;28584;42.636;23.294;2023-07-16T07:13:29;167362.38;;;32.87;49.71
42945;BME280;28584;42.636;23.294;2023-07-16T07:15:55;167450.53;;;33.19;49.05
42945;BME280;28584;42.636;23.294;2023-07-16T07:18:21;167454.59;;;33.21;48.91
42945;BME280;28584;42.636;23.294;2023-07-16T07:20:47;167458.66;;;33.22;48.84
42945;BME280;28584;42.636;23.294;2023-07-16T07:23:13;167555.00;;;33.58;48.21
42945;BME280;28584;42.636;23.294;2023-07-16T07:25:38;166900.09;;;31.16;51.64
42945;BME280;28584;42.636;23.294;2023-07-16T07:28:04;167240.34;;;32.42;51.18
42945;BME280;28584;42.636;23.294;2023-07-16T07:30:29;167527.88;;;33.48;48.50
42945;BME280;28584;42.636;23.294;2023-07-16T07:32:55;167673.06;;;34.02;47.18
42945;BME280;28584;42.636;23.294;2023-07-16T07:35:20;167310.84;;;32.68;48.41
42945;BME280;28584;42.636;23.294;2023-07-16T07:37:46;167431.53;;;33.12;49.15
42945;BME280;28584;42.636;23.294;2023-07-16T07:40:11;167357.00;;;32.85;49.21
42945;BME280;28584;42.636;23.294;2023-07-16T07:42:37;167582.16;;;33.68;47.59
42945;BME280;28584;42.636;23.294;2023-07-16T07:45:02;167239.00;;;32.41;50.12
42945;BME280;28584;42.636;23.294;2023-07-16T07:47:28;166767.31;;;30.67;54.30
42945;BME280;28584;42.636;23.294;2023-07-16T07:49:54;166535.78;;;29.81;55.98
42945;BME280;28584;42.636;23.294;2023-07-16T07:52:19;166523.59;;;29.77;57.85
42945;BME280;28584;42.636;23.294;2023-07-16T07:54:45;166837.81;;;30.93;56.52
42945;BME280;28584;42.636;23.294;2023-07-16T07:57:10;167110.19;;;31.94;52.24
42945;BME280;28584;42.636;23.294;2023-07-16T07:59:35;167245.78;;;32.44;49.95
42945;BME280;28584;42.636;23.294;2023-07-16T08:02:01;167115.63;;;31.96;53.01
42945;BME280;28584;42.636;23.294;2023-07-16T08:04:29;166822.94;;;30.87;54.03
42945;BME280;28584;42.636;23.294;2023-07-16T08:06:57;166844.59;;;30.95;54.51
42945;BME280;28584;42.636;23.294;2023-07-16T08:09:23;167348.81;;;32.82;51.29
42945;BME280;28584;42.636;23.294;2023-07-16T08:11:49;167621.44;;;33.83;48.33
42945;BME280;28584;42.636;23.294;2023-07-16T08:14:14;167857.66;;;34.70;46.04
42945;BME280;28584;42.636;23.294;2023-07-16T08:16:40;167717.81;;;34.18;46.67
42945;BME280;28584;42.636;23.294;2023-07-16T08:19:05;167652.69;;;33.94;46.06
42945;BME280;28584;42.636;23.294;2023-07-16T08:21:32;167883.44;;;34.79;45.04
42945;BME280;28584;42.636;23.294;2023-07-16T08:23:57;167243.09;;;32.43;48.05
42945;BME280;28584;42.636;23.294;2023-07-16T08:26:23;167525.19;;;33.47;47.46
42945;BME280;28584;42.636;23.294;2023-07-16T08:28:50;167725.97;;;34.21;45.83
42945;BME280;28584;42.636;23.294;2023-07-16T08:31:15;167910.63;;;34.89;43.91
42945;BME280;28584;42.636;23.294;2023-07-16T08:33:41;167742.25;;;34.27;45.05
42945;BME280;28584;42.636;23.294;2023-07-16T08:36:06;167922.78;;;34.94;43.95
42945;BME280;28584;42.636;23.294;2023-07-16T08:38:32;167329.81;;;32.75;47.16
42945;BME280;28584;42.636;23.294;2023-07-16T08:40:57;167247.09;;;32.44;48.82
42945;BME280;28584;42.636;23.294;2023-07-16T08:43:23;167739.50;;;34.26;45.07
42945;BME280;28584;42.636;23.294;2023-07-16T08:45:49;167830.50;;;34.60;44.25
42945;BME280;28584;42.636;23.294;2023-07-16T08:48:16;167879.34;;;34.78;44.42
42945;BME280;28584;42.636;23.294;2023-07-16T08:50:49;168088.47;;;35.55;42.62
42945;BME280;28584;42.636;23.294;2023-07-16T08:53:18;168103.41;;;35.60;42.10
42945;BME280;28584;42.636;23.294;2023-07-16T08:55:47;168318.06;;;36.40;41.03
42945;BME280;28584;42.636;23.294;2023-07-16T08:58:14;167598.38;;;33.74;46.16
42945;BME280;28584;42.636;23.294;2023-07-16T09:00:41;167215.97;;;32.33;49.24
42945;BME280;28584;42.636;23.294;2023-07-16T09:03:07;167636.41;;;33.88;46.11
42945;BME280;28584;42.636;23.294;2023-07-16T09:05:34;167886.13;;;34.80;43.46
42945;BME280;28584;42.636;23.294;2023-07-16T09:08:01;167362.38;;;32.87;46.55
42945;BME280;28584;42.636;23.294;2023-07-16T09:10:26;167901.09;;;34.86;44.23
42945;BME280;28584;42.636;23.294;2023-07-16T09:12:52;167750.41;;;34.30;44.44
42945;BME280;28584;42.636;23.294;2023-07-16T09:15:18;168125.09;;;35.68;42.40
42945;BME280;28584;42.636;23.294;2023-07-16T09:17:48;168267.75;;;36.21;41.83
42945;BME280;28584;42.636;23.294;2023-07-16T09:20:17;168263.69;;;36.20;41.04
42945;BME280;28584;42.636;23.294;2023-07-16T09:22:44;168009.72;;;35.26;42.64
42945;BME280;28584;42.636;23.294;2023-07-16T09:25:10;168171.31;;;35.85;41.94
42945;BME280;28584;42.636;23.294;2023-07-16T09:27:36;168118.31;;;35.66;42.46
42945;BME280;28584;42.636;23.294;2023-07-16T09:30:03;168339.78;;;36.48;40.97
42945;BME280;28584;42.636;23.294;2023-07-16T09:32:38;168459.38;;;36.92;39.39
42945;BME280;28584;42.636;23.294;2023-07-16T09:35:11;168527.34;;;37.17;39.58
42945;BME280;28584;42.636;23.294;2023-07-16T09:37:37;168155.06;;;35.79;41.58
42945;BME280;28584;42.636;23.294;2023-07-16T09:40:05;168402.28;;;36.71;40.09
42945;BME280;28584;42.636;23.294;2023-07-16T09:42:38;168214.78;;;36.01;41.38
42945;BME280;28584;42.636;23.294;2023-07-16T09:45:06;168487.94;;;37.02;39.21
42945;BME280;28584;42.636;23.294;2023-07-16T09:47:32;167891.56;;;34.82;42.64
42945;BME280;28584;42.636;23.294;2023-07-16T09:49:57;167064.06;;;31.77;48.49
42945;BME280;28584;42.636;23.294;2023-07-16T09:52:25;167287.81;;;32.59;48.59
42945;BME280;28584;42.636;23.294;2023-07-16T09:54:55;166993.63;;;31.51;50.04
42945;BME280;28584;42.636;23.294;2023-07-16T09:57:21;167374.59;;;32.91;48.08
42945;BME280;28584;42.636;23.294;2023-07-16T09:59:49;167643.22;;;33.91;47.26
42945;BME280;28584;42.636;23.294;2023-07-16T10:02:17;167994.78;;;35.20;43.11
42945;BME280;28584;42.636;23.294;2023-07-16T10:04:43;168254.19;;;36.16;40.38
42945;BME280;28584;42.636;23.294;2023-07-16T10:07:19;168011.03;;;35.26;41.52
42945;BME280;28584;42.636;23.294;2023-07-16T10:09:57;167925.53;;;34.95;43.74
42945;BME280;28584;42.636;23.294;2023-07-16T10:12:24;168379.19;;;36.62;40.09
42945;BME280;28584;42.636;23.294;2023-07-16T10:14:52;168459.38;;;36.92;39.83
42945;BME280;28584;42.636;23.294;2023-07-16T10:17:20;168570.84;;;37.33;38.35
42945;BME280;28584;42.636;23.294;2023-07-16T10:22:12;168785.69;;;38.12;38.63
42945;BME280;28584;42.636;23.294;2023-07-16T10:24:39;168821.00;;;38.25;36.99
42945;BME280;28584;42.636;23.294;2023-07-16T10:27:04;169005.97;;;38.93;36.21
42945;BME280;28584;42.636;23.294;2023-07-16T10:29:30;169242.78;;;39.80;35.42
42945;BME280;28584;42.636;23.294;2023-07-16T10:31:57;169097.13;;;39.27;36.29
42945;BME280;28584;42.636;23.294;2023-07-16T10:34:23;169071.31;;;39.17;35.98
42945;BME280;28584;42.636;23.294;2023-07-16T10:36:50;168365.63;;;36.57;39.46
42945;BME280;28584;42.636;23.294;2023-07-16T10:39:15;168337.06;;;36.47;39.34
42945;BME280;28584;42.636;23.294;2023-07-16T10:41:41;168357.47;;;36.54;39.59
42945;BME280;28584;42.636;23.294;2023-07-16T10:44:13;168031.47;;;35.34;42.04
42945;BME280;28584;42.636;23.294;2023-07-16T10:46:41;168046.38;;;35.39;41.85
42945;BME280;28584;42.636;23.294;2023-07-16T10:49:07;168074.91;;;35.50;41.53
42945;BME280;28584;42.636;23.294;2023-07-16T10:51:33;168106.09;;;35.61;40.99
42945;BME280;28584;42.636;23.294;2023-07-16T10:53:58;167907.88;;;34.88;41.79
42945;BME280;28584;42.636;23.294;2023-07-16T10:56:25;168038.22;;;35.36;41.07
42945;BME280;28584;42.636;23.294;2023-07-16T10:58:50;168061.31;;;35.45;41.89
42945;BME280;28584;42.636;23.294;2023-07-16T11:01:16;168089.84;;;35.55;40.98
42945;BME280;28584;42.636;23.294;2023-07-16T11:03:42;167164.41;;;32.14;45.42
42945;BME280;28584;42.636;23.294;2023-07-16T11:06:10;167342.03;;;32.79;45.58
42945;BME280;28584;42.636;23.294;2023-07-16T11:08:37;167517.03;;;33.44;46.11
42945;BME280;28584;42.636;23.294;2023-07-16T11:11:02;167987.94;;;35.18;41.82
42945;BME280;28584;42.636;23.294;2023-07-16T11:13:29;168240.59;;;36.11;40.69
42945;BME280;28584;42.636;23.294;2023-07-16T11:15:55;167971.69;;;35.12;40.88
42945;BME280;28584;42.636;23.294;2023-07-16T11:18:24;167951.31;;;35.04;41.67
42945;BME280;28584;42.636;23.294;2023-07-16T11:20:51;168201.25;;;35.96;39.35
42945;BME280;28584;42.636;23.294;2023-07-16T11:23:17;168406.41;;;36.72;38.15
42945;BME280;28584;42.636;23.294;2023-07-16T11:25:47;168494.72;;;37.05;36.93
42945;BME280;28584;42.636;23.294;2023-07-16T11:28:13;168682.34;;;37.74;35.87
42945;BME280;28584;42.636;23.294;2023-07-16T11:30:38;168868.59;;;38.42;34.82
42945;BME280;28584;42.636;23.294;2023-07-16T11:33:09;168263.69;;;36.20;37.17
42945;BME280;28584;42.636;23.294;2023-07-16T11:35:36;167772.16;;;34.38;40.75
42945;BME280;28584;42.636;23.294;2023-07-16T11:38:02;167858.97;;;34.70;41.08
42945;BME280;28584;42.636;23.294;2023-07-16T11:40:29;167666.28;;;33.99;41.24
42945;BME280;28584;42.636;23.294;2023-07-16T11:42:54;167875.28;;;34.76;39.53
42945;BME280;28584;42.636;23.294;2023-07-16T11:45:22;168328.91;;;36.44;37.97
42945;BME280;28584;42.636;23.294;2023-07-16T11:47:54;168632.00;;;37.55;33.93
42945;BME280;28584;42.636;23.294;2023-07-16T11:50:19;168849.56;;;38.35;33.26
42945;BME280;28584;42.636;23.294;2023-07-16T11:52:56;169080.84;;;39.21;31.88
42945;BME280;28584;42.636;23.294;2023-07-16T11:55:22;169189.69;;;39.61;31.83
42945;BME280;28584;42.636;23.294;2023-07-16T11:57:47;168898.56;;;38.54;31.65
42945;BME280;28584;42.636;23.294;2023-07-16T12:00:13;168660.56;;;37.66;32.61
42945;BME280;28584;42.636;23.294;2023-07-16T12:02:39;168433.59;;;36.82;33.18
42945;BME280;28584;42.636;23.294;2023-07-16T12:05:04;168573.56;;;37.34;33.97
42945;BME280;28584;42.636;23.294;2023-07-16T12:07:35;168657.88;;;37.65;33.64
42945;BME280;28584;42.636;23.294;2023-07-16T12:10:06;168225.66;;;36.05;37.51
42945;BME280;28584;42.636;23.294;2023-07-16T12:12:32;168375.09;;;36.61;37.49
42945;BME280;28584;42.636;23.294;2023-07-16T12:14:59;168055.91;;;35.43;37.95
42945;BME280;28584;42.636;23.294;2023-07-16T12:17:25;167738.19;;;34.26;39.96
42945;BME280;28584;42.636;23.294;2023-07-16T12:19:50;167755.81;;;34.32;39.46
42945;BME280;28584;42.636;23.294;2023-07-16T12:22:17;167720.50;;;34.19;39.71
42945;BME280;28584;42.636;23.294;2023-07-16T12:24:43;167690.69;;;34.08;41.17
42945;BME280;28584;42.636;23.294;2023-07-16T12:27:08;167678.47;;;34.04;42.25
42945;BME280;28584;42.636;23.294;2023-07-16T12:29:34;167588.91;;;33.70;41.57
42945;BME280;28584;42.636;23.294;2023-07-16T12:31:59;167679.84;;;34.04;40.83
42945;BME280;28584;42.636;23.294;2023-07-16T12:34:25;167660.84;;;33.97;40.56
42945;BME280;28584;42.636;23.294;2023-07-16T12:36:50;167561.78;;;33.60;39.41
42945;BME280;28584;42.636;23.294;2023-07-16T12:39:16;167609.28;;;33.78;39.04